createdAt,value
2016-10-30T00:00:57.317Z,96.98
2016-10-30T00:01:57.971Z,97.36
2016-10-30T00:02:58.635Z,97.46
2016-10-30T00:03:59.304Z,97.46
2016-10-30T00:04:59.962Z,97.46
2016-10-30T00:06:00.626Z,97.56
2016-10-30T00:07:01.286Z,96.8
2016-10-30T00:08:01.953Z,96.8
2016-10-30T00:09:02.614Z,96.98
2016-10-30T00:10:03.282Z,96.98
2016-10-30T00:11:03.945Z,96.7
2016-10-30T00:12:04.613Z,96.89
2016-10-30T00:13:05.276Z,97.46
2016-10-30T00:14:05.943Z,97.46
2016-10-30T00:15:06.605Z,97.46
2016-10-30T00:16:07.273Z,96.98
2016-10-30T00:17:07.936Z,96.8
2016-10-30T00:18:08.614Z,97.46
2016-10-30T00:19:09.275Z,97.27
2016-10-30T00:20:09.933Z,96.7
2016-10-30T00:21:10.585Z,96.8
2016-10-30T00:22:11.251Z,97.65
2016-10-30T00:23:11.923Z,97.17
2016-10-30T00:24:12.603Z,97.65
2016-10-30T00:25:13.267Z,97.46
2016-10-30T00:26:13.929Z,97.65
2016-10-30T00:27:14.595Z,97.46
2016-10-30T00:28:15.257Z,97.46
2016-10-30T00:29:15.938Z,97.17
2016-10-30T00:30:16.591Z,97.46
2016-10-30T00:31:17.250Z,97.36
2016-10-30T00:32:17.922Z,97.56
2016-10-30T00:33:18.584Z,97.46
2016-10-30T00:34:19.267Z,97.36
2016-10-30T00:35:19.932Z,97.17
2016-10-30T00:36:20.608Z,96.98
2016-10-30T00:37:21.273Z,97.17
2016-10-30T00:38:21.946Z,97.56
2016-10-30T00:39:22.623Z,97.46
2016-10-30T00:40:23.295Z,97.65
2016-10-30T00:41:23.961Z,97.56
2016-10-30T00:42:24.644Z,97.65
2016-10-30T00:43:25.305Z,97.46
2016-10-30T00:44:25.999Z,96.98
2016-10-30T00:45:26.654Z,97.65
2016-10-30T00:46:27.330Z,97.27
2016-10-30T00:47:27.999Z,97.46
2016-10-30T00:48:28.670Z,97.27
2016-10-30T00:49:29.343Z,97.36
2016-10-30T00:50:30.021Z,97.46
2016-10-30T00:51:30.684Z,97.17
2016-10-30T00:52:31.371Z,96.89
2016-10-30T00:53:32.047Z,97.27
2016-10-30T00:54:32.709Z,97.27
2016-10-30T00:55:33.370Z,97.65
2016-10-30T00:56:34.047Z,96.8
2016-10-30T00:57:34.718Z,96.8
2016-10-30T00:58:35.391Z,97.56
2016-10-30T00:59:36.063Z,97.46
2016-10-30T01:00:36.741Z,97.65
2016-10-30T01:01:37.411Z,97.46
2016-10-30T01:02:38.080Z,97.56
2016-10-30T01:03:38.747Z,97.6
2016-10-30T01:04:39.416Z,97.17
2016-10-30T01:05:40.117Z,96.98
2016-10-30T01:06:40.773Z,97.41
2016-10-30T01:07:41.452Z,97.27
2016-10-30T01:08:42.121Z,97.56
2016-10-30T01:09:42.781Z,97.46
2016-10-30T01:10:43.443Z,96.8
2016-10-30T01:11:44.118Z,96.98
2016-10-30T01:12:44.801Z,97.17
2016-10-30T01:13:45.467Z,96.51
2016-10-30T01:14:46.135Z,97.13
2016-10-30T01:15:46.794Z,96.8
2016-10-30T01:16:47.458Z,96.8
2016-10-30T01:17:48.123Z,96.51
2016-10-30T01:18:48.790Z,96.6
2016-10-30T01:19:49.458Z,96.55
2016-10-30T01:20:50.122Z,96.7
2016-10-30T01:21:50.787Z,96.65
2016-10-30T01:22:51.472Z,96.8
2016-10-30T01:23:52.143Z,96.55
2016-10-30T01:24:52.839Z,96.6
2016-10-30T01:25:53.520Z,96.65
2016-10-30T01:26:54.184Z,96.6
2016-10-30T01:27:54.848Z,96.6
2016-10-30T01:28:55.515Z,96.7
2016-10-30T01:29:56.183Z,96.75
2016-10-30T01:30:56.847Z,96.6
2016-10-30T01:31:57.526Z,96.7
2016-10-30T01:32:58.198Z,96.6
2016-10-30T01:33:58.871Z,96.51
2016-10-30T01:34:59.532Z,96.75
2016-10-30T01:36:00.206Z,96.75
2016-10-30T01:37:00.865Z,96.94
2016-10-30T01:38:01.523Z,97.03
2016-10-30T01:39:02.186Z,97.22
2016-10-30T01:40:02.859Z,97.17
2016-10-30T01:41:03.558Z,96.75
2016-10-30T01:42:04.223Z,97.03
2016-10-30T01:43:04.897Z,96.98
2016-10-30T01:44:05.580Z,96.7
2016-10-30T01:45:06.239Z,96.75
2016-10-30T01:46:06.912Z,97.08
2016-10-30T01:47:07.583Z,96.89
2016-10-30T01:48:08.256Z,96.8
2016-10-30T01:49:08.915Z,96.7
2016-10-30T01:50:09.577Z,96.7
2016-10-30T01:51:10.242Z,96.8
2016-10-30T01:52:10.914Z,96.84
2016-10-30T01:53:11.571Z,96.8
2016-10-30T01:54:12.236Z,96.7
2016-10-30T01:55:12.921Z,96.41
2016-10-30T01:56:13.582Z,96.22
2016-10-30T01:57:14.256Z,95.84
2016-10-30T01:58:14.929Z,95.84
2016-10-30T01:59:15.598Z,95.84
2016-10-30T02:00:16.257Z,95.75
2016-10-30T02:01:16.910Z,95.84
2016-10-30T02:02:17.580Z,96.03
2016-10-30T02:03:18.252Z,95.75
2016-10-30T02:04:18.920Z,95.75
2016-10-30T02:05:19.586Z,95.56
2016-10-30T02:06:20.253Z,95.75
2016-10-30T02:07:20.919Z,95.17
2016-10-30T02:08:21.582Z,95.08
2016-10-30T02:09:22.242Z,94.89
2016-10-30T02:10:22.913Z,94.79
2016-10-30T02:11:23.587Z,94.51
2016-10-30T02:12:24.250Z,94.7
2016-10-30T02:13:24.910Z,94.89
2016-10-30T02:14:25.576Z,94.6
2016-10-30T02:15:26.251Z,94.51
2016-10-30T02:16:26.911Z,94.22
2016-10-30T02:17:27.587Z,94.22
2016-10-30T02:18:28.264Z,94.03
2016-10-30T02:19:29.429Z,94.22
2016-10-30T02:20:30.100Z,93.65
2016-10-30T02:21:30.779Z,93.55
2016-10-30T02:22:31.436Z,93.65
2016-10-30T02:23:32.137Z,93.55
2016-10-30T02:24:32.805Z,93.27
2016-10-30T02:25:33.460Z,93.84
2016-10-30T02:26:34.161Z,93.17
2016-10-30T02:27:34.823Z,93.93
2016-10-30T02:28:35.489Z,93.46
2016-10-30T02:29:36.148Z,93.84
2016-10-30T02:30:36.841Z,93.27
2016-10-30T02:31:37.504Z,92.98
2016-10-30T02:32:38.170Z,92.98
2016-10-30T02:33:38.843Z,92.89
2016-10-30T02:34:39.517Z,92.79
2016-10-30T02:35:40.181Z,93.37
2016-10-30T02:36:40.851Z,93.17
2016-10-30T02:37:41.529Z,93.08
2016-10-30T02:38:42.189Z,92.5
2016-10-30T02:39:42.849Z,92.41
2016-10-30T02:40:43.577Z,92.32
2016-10-30T02:41:44.244Z,92.5
2016-10-30T02:42:44.906Z,92.13
2016-10-30T02:43:45.571Z,92.22
2016-10-30T02:44:46.236Z,91.94
2016-10-30T02:45:46.912Z,91.84
2016-10-30T02:46:47.584Z,91.36
2016-10-30T02:47:48.242Z,91.65
2016-10-30T02:48:48.912Z,90.89
2016-10-30T02:49:49.571Z,91.27
2016-10-30T02:50:50.235Z,91.08
2016-10-30T02:51:50.898Z,90.89
2016-10-30T02:52:51.564Z,91.08
2016-10-30T02:53:52.233Z,91.46
2016-10-30T02:54:52.910Z,91.74
2016-10-30T02:55:53.578Z,91.46
2016-10-30T02:56:54.251Z,90.89
2016-10-30T02:57:54.928Z,90.7
2016-10-30T02:58:55.595Z,90.89
2016-10-30T02:59:56.268Z,90.98
2016-10-30T03:00:56.945Z,91.84
2016-10-30T03:01:57.608Z,90.89
2016-10-30T03:02:58.264Z,91.84
2016-10-30T03:03:58.920Z,91.65
2016-10-30T03:04:59.582Z,91.65
2016-10-30T03:06:00.249Z,91.46
2016-10-30T03:07:00.928Z,91.17
2016-10-30T03:08:01.594Z,91.46
2016-10-30T03:09:02.259Z,91.74
2016-10-30T03:10:02.918Z,91.46
2016-10-30T03:11:03.584Z,91.74
2016-10-30T03:12:04.248Z,91.65
2016-10-30T03:13:04.921Z,91.65
2016-10-30T03:14:05.581Z,91.36
2016-10-30T03:15:06.243Z,91.74
2016-10-30T03:16:06.914Z,92.03
2016-10-30T03:17:07.591Z,92.03
2016-10-30T03:18:08.259Z,91.84
2016-10-30T03:19:08.907Z,92.03
2016-10-30T03:20:09.575Z,91.94
2016-10-30T03:21:10.247Z,92.22
2016-10-30T03:22:10.916Z,92.6
2016-10-30T03:23:11.610Z,92.41
2016-10-30T03:24:12.290Z,92.22
2016-10-30T03:25:12.967Z,92.03
2016-10-30T03:26:13.638Z,92.03
2016-10-30T03:27:14.306Z,92.5
2016-10-30T03:28:14.968Z,92.5
2016-10-30T03:29:15.631Z,92.89
2016-10-30T03:30:16.294Z,92.98
2016-10-30T03:31:16.967Z,92.69
2016-10-30T03:32:17.625Z,93.27
2016-10-30T03:33:18.295Z,92.98
2016-10-30T03:34:18.979Z,92.79
2016-10-30T03:35:19.636Z,93.17
2016-10-30T03:36:20.297Z,93.37
2016-10-30T03:37:20.970Z,93.46
2016-10-30T03:38:21.635Z,93.37
2016-10-30T03:39:22.296Z,93.17
2016-10-30T03:40:22.971Z,93.46
2016-10-30T03:41:23.629Z,93.65
2016-10-30T03:42:24.296Z,94.03
2016-10-30T03:43:24.959Z,94.03
2016-10-30T03:44:25.630Z,94.22
2016-10-30T03:45:26.287Z,94.22
2016-10-30T03:46:26.947Z,94.22
2016-10-30T03:47:27.628Z,94.13
2016-10-30T03:48:28.306Z,94.22
2016-10-30T03:49:28.969Z,94.51
2016-10-30T03:50:29.630Z,94.22
2016-10-30T03:51:30.288Z,94.6
2016-10-30T03:52:30.979Z,94.32
2016-10-30T03:53:31.616Z,94.41
2016-10-30T03:54:32.288Z,94.03
2016-10-30T03:55:32.969Z,94.13
2016-10-30T03:56:33.634Z,93.84
2016-10-30T03:57:34.303Z,93.65
2016-10-30T03:58:34.966Z,93.93
2016-10-30T03:59:35.632Z,93.74
2016-10-30T04:00:36.293Z,94.32
2016-10-30T04:01:36.954Z,94.32
2016-10-30T04:02:37.630Z,94.13
2016-10-30T04:03:38.288Z,94.22
2016-10-30T04:04:38.966Z,94.03
2016-10-30T04:05:39.627Z,94.22
2016-10-30T04:06:40.291Z,94.22
2016-10-30T04:07:40.945Z,94.22
2016-10-30T04:08:41.613Z,94.22
2016-10-30T04:09:42.292Z,94.22
2016-10-30T04:10:42.958Z,94.51
2016-10-30T04:11:43.622Z,94.03
2016-10-30T04:12:44.288Z,94.13
2016-10-30T04:13:44.957Z,94.41
2016-10-30T04:14:45.629Z,94.41
2016-10-30T04:15:46.307Z,94.51
2016-10-30T04:16:46.998Z,94.13
2016-10-30T04:17:47.663Z,94.03
2016-10-30T04:18:48.327Z,94.41
2016-10-30T04:19:49.002Z,94.6
2016-10-30T04:20:49.679Z,94.32
2016-10-30T04:21:50.358Z,94.32
2016-10-30T04:22:51.024Z,94.13
2016-10-30T04:23:51.686Z,94.51
2016-10-30T04:24:52.362Z,94.13
2016-10-30T04:25:53.032Z,94.41
2016-10-30T04:26:53.699Z,94.22
2016-10-30T04:27:54.359Z,94.79
2016-10-30T04:28:55.029Z,94.98
2016-10-30T04:29:55.703Z,94.41
2016-10-30T04:30:56.362Z,94.51
2016-10-30T04:31:57.027Z,94.22
2016-10-30T04:32:57.691Z,94.41
2016-10-30T04:33:58.354Z,94.79
2016-10-30T04:34:59.019Z,95.08
2016-10-30T04:35:59.687Z,94.89
2016-10-30T04:37:00.346Z,94.98
2016-10-30T04:38:01.011Z,94.51
2016-10-30T04:39:01.674Z,94.89
2016-10-30T04:40:02.338Z,94.89
2016-10-30T04:41:02.999Z,94.7
2016-10-30T04:42:03.684Z,94.89
2016-10-30T04:43:04.357Z,94.79
2016-10-30T04:44:05.029Z,94.79
2016-10-30T04:45:05.691Z,94.6
2016-10-30T04:46:06.364Z,94.6
2016-10-30T04:47:07.031Z,94.6
2016-10-30T04:48:07.700Z,94.7
2016-10-30T04:49:08.387Z,94.7
2016-10-30T04:50:09.054Z,94.79
2016-10-30T04:51:09.709Z,94.89
2016-10-30T04:52:10.374Z,95.08
2016-10-30T04:53:11.043Z,95.08
2016-10-30T04:54:11.724Z,95.17
2016-10-30T04:55:12.393Z,95.46
2016-10-30T04:56:13.072Z,94.89
2016-10-30T04:57:13.727Z,95.08
2016-10-30T04:58:14.395Z,95.08
2016-10-30T04:59:15.065Z,95.36
2016-10-30T05:00:15.730Z,95.27
2016-10-30T05:01:16.388Z,95.36
2016-10-30T05:02:17.050Z,95.17
2016-10-30T05:03:17.714Z,95.65
2016-10-30T05:04:18.378Z,95.41
2016-10-30T05:05:19.036Z,95.6
2016-10-30T05:06:19.694Z,95.75
2016-10-30T05:07:20.357Z,95.56
2016-10-30T05:08:21.038Z,95.56
2016-10-30T05:09:21.704Z,95.46
2016-10-30T05:10:22.381Z,95.17
2016-10-30T05:11:23.054Z,95.56
2016-10-30T05:12:23.720Z,95.56
2016-10-30T05:13:24.401Z,95.41
2016-10-30T05:14:25.071Z,95.56
2016-10-30T05:15:25.736Z,95.65
2016-10-30T05:16:26.413Z,95.84
2016-10-30T05:17:27.082Z,96.27
2016-10-30T05:18:27.750Z,96.12
2016-10-30T05:19:28.425Z,95.79
2016-10-30T05:20:29.094Z,95.84
2016-10-30T05:21:29.770Z,95.84
2016-10-30T05:22:30.445Z,95.79
2016-10-30T05:23:31.160Z,95.84
2016-10-30T05:24:31.840Z,96.03
2016-10-30T05:25:32.505Z,95.65
2016-10-30T05:26:33.176Z,95.79
2016-10-30T05:27:33.855Z,95.94
2016-10-30T05:28:34.522Z,96.32
2016-10-30T05:29:35.204Z,96.22
2016-10-30T05:30:35.869Z,96.12
2016-10-30T05:31:36.545Z,96.08
2016-10-30T05:32:37.209Z,96.17
2016-10-30T05:33:37.878Z,96.55
2016-10-30T05:34:38.562Z,96.65
2016-10-30T05:35:39.237Z,96.55
2016-10-30T05:36:39.903Z,96.75
2016-10-30T05:37:40.567Z,96.84
2016-10-30T05:38:41.248Z,96.94
2016-10-30T05:39:41.910Z,97.13
2016-10-30T05:40:42.570Z,96.94
2016-10-30T05:41:43.227Z,96.94
2016-10-30T05:42:43.891Z,96.55
2016-10-30T05:43:44.563Z,97.56
2016-10-30T05:44:45.228Z,97.31
2016-10-30T05:45:45.896Z,97.41
2016-10-30T05:46:46.561Z,97.27
2016-10-30T05:47:47.219Z,97.6
2016-10-30T05:48:47.888Z,97.56
2016-10-30T05:49:48.551Z,97.31
2016-10-30T05:50:49.216Z,97.75
2016-10-30T05:51:49.874Z,97.56
2016-10-30T05:52:50.537Z,97.31
2016-10-30T05:53:51.202Z,97.51
2016-10-30T05:54:51.867Z,97.56
2016-10-30T05:55:52.546Z,97.36
2016-10-30T05:56:53.221Z,97.36
2016-10-30T05:57:53.892Z,97.6
2016-10-30T05:58:54.557Z,97.46
2016-10-30T05:59:55.214Z,97.41
2016-10-30T06:00:55.874Z,97.51
2016-10-30T06:01:56.546Z,97.36
2016-10-30T06:02:57.205Z,97.56
2016-10-30T06:03:57.867Z,97.46
2016-10-30T06:04:58.540Z,96.98
2016-10-30T06:05:59.202Z,97.17
2016-10-30T06:06:59.879Z,97.51
2016-10-30T06:08:00.572Z,97.41
2016-10-30T06:09:01.237Z,97.65
2016-10-30T06:10:01.927Z,97.31
2016-10-30T06:11:02.600Z,97.7
2016-10-30T06:12:03.268Z,97.65
2016-10-30T06:13:03.941Z,97.94
2016-10-30T06:14:04.604Z,97.84
2016-10-30T06:15:05.270Z,97.79
2016-10-30T06:16:05.950Z,97.7
2016-10-30T06:17:06.617Z,97.99
2016-10-30T06:18:07.283Z,97.99
2016-10-30T06:19:07.963Z,97.99
2016-10-30T06:20:08.637Z,97.99
2016-10-30T06:21:09.315Z,97.99
2016-10-30T06:22:09.983Z,98.65
2016-10-30T06:23:10.649Z,97.94
2016-10-30T06:24:11.344Z,97.99
2016-10-30T06:25:12.000Z,97.89
2016-10-30T06:26:12.675Z,98.03
2016-10-30T06:27:13.350Z,97.89
2016-10-30T06:28:14.019Z,97.89
2016-10-30T06:29:14.691Z,98.03
2016-10-30T06:30:15.354Z,98.22
2016-10-30T06:31:16.024Z,98.22
2016-10-30T06:32:16.702Z,98.55
2016-10-30T06:33:17.376Z,98.41
2016-10-30T06:34:18.043Z,98.41
2016-10-30T06:35:18.726Z,98.74
2016-10-30T06:36:19.397Z,98.51
2016-10-30T06:37:20.077Z,98.79
2016-10-30T06:38:20.751Z,98.74
2016-10-30T06:39:21.422Z,98.51
2016-10-30T06:40:22.098Z,98.32
2016-10-30T06:41:22.761Z,98.46
2016-10-30T06:42:23.435Z,98.65
2016-10-30T06:43:24.107Z,98.08
2016-10-30T06:44:24.773Z,98.41
2016-10-30T06:45:25.441Z,98.7
2016-10-30T06:46:26.099Z,98.36
2016-10-30T06:47:26.777Z,98.03
2016-10-30T06:48:27.454Z,98.51
2016-10-30T06:49:28.117Z,98.36
2016-10-30T06:50:28.782Z,98.18
2016-10-30T06:51:29.443Z,98.41
2016-10-30T06:52:30.105Z,98.65
2016-10-30T06:53:30.772Z,98.55
2016-10-30T06:54:31.434Z,98.74
2016-10-30T06:55:32.127Z,98.65
2016-10-30T06:56:32.782Z,98.55
2016-10-30T06:57:33.452Z,98.89
2016-10-30T06:58:34.115Z,98.46
2016-10-30T06:59:34.796Z,98.84
2016-10-30T07:00:35.472Z,98.51
2016-10-30T07:01:36.142Z,98.41
2016-10-30T07:02:36.800Z,98.46
2016-10-30T07:03:37.468Z,98.32
2016-10-30T07:04:38.154Z,98.55
2016-10-30T07:05:38.820Z,98.41
2016-10-30T07:06:39.494Z,98.41
2016-10-30T07:07:40.181Z,98.13
2016-10-30T07:08:40.851Z,98.32
2016-10-30T07:09:41.519Z,98.03
2016-10-30T07:10:42.183Z,97.75
2016-10-30T07:11:42.858Z,97.65
2016-10-30T07:12:43.532Z,97.56
2016-10-30T07:13:44.208Z,97.46
2016-10-30T07:14:44.874Z,97.46
2016-10-30T07:15:45.541Z,97.46
2016-10-30T07:16:46.212Z,97.36
2016-10-30T07:17:46.879Z,96.89
2016-10-30T07:18:47.541Z,96.8
2016-10-30T07:19:48.224Z,97.08
2016-10-30T07:20:48.891Z,96.89
2016-10-30T07:21:49.563Z,96.36
2016-10-30T07:22:50.231Z,96.36
2016-10-30T07:23:50.918Z,95.79
2016-10-30T07:24:51.587Z,96.03
2016-10-30T07:25:52.257Z,96.08
2016-10-30T07:26:52.926Z,95.89
2016-10-30T07:27:53.605Z,95.61
2016-10-30T07:28:54.269Z,96.03
2016-10-30T07:29:54.945Z,95.61
2016-10-30T07:30:55.619Z,96.08
2016-10-30T07:31:56.286Z,95.89
2016-10-30T07:32:56.978Z,95.98
2016-10-30T07:33:57.655Z,96.17
2016-10-30T07:34:58.339Z,95.61
2016-10-30T07:35:59.028Z,95.89
2016-10-30T07:36:59.707Z,95.98
2016-10-30T07:38:00.376Z,96.08
2016-10-30T07:39:01.041Z,96.17
2016-10-30T07:40:01.725Z,96.08
2016-10-30T07:41:02.447Z,95.7
2016-10-30T07:42:03.143Z,95.32
2016-10-30T07:43:03.809Z,95.61
2016-10-30T07:44:04.485Z,95.98
2016-10-30T07:45:05.171Z,95.98
2016-10-30T07:46:05.841Z,96.17
2016-10-30T07:47:06.530Z,96.36
2016-10-30T07:48:07.219Z,96.17
2016-10-30T07:49:08.069Z,95.98
2016-10-30T07:50:08.757Z,95.61
2016-10-30T07:51:09.430Z,96.08
2016-10-30T07:52:10.104Z,95.89
2016-10-30T07:53:10.817Z,95.98
2016-10-30T07:54:11.513Z,95.65
2016-10-30T07:55:12.253Z,95.94
2016-10-30T07:56:12.976Z,96.03
2016-10-30T07:57:13.653Z,96.22
2016-10-30T07:58:14.483Z,96.12
2016-10-30T07:59:15.044Z,95.75
2016-10-30T08:00:15.713Z,96.03
2016-10-30T08:01:16.409Z,96.08
2016-10-30T08:02:17.080Z,95.89
2016-10-30T08:03:17.747Z,95.98
2016-10-30T08:04:18.408Z,96.17
2016-10-30T08:05:19.947Z,96.17
2016-10-30T08:06:20.632Z,95.98
2016-10-30T08:07:21.310Z,95.7
2016-10-30T08:08:21.987Z,95.22
2016-10-30T08:09:22.660Z,95.51
2016-10-30T08:10:23.329Z,95.61
2016-10-30T08:11:23.989Z,95.61
2016-10-30T08:12:24.658Z,95.51
2016-10-30T08:13:25.321Z,95.12
2016-10-30T08:14:25.993Z,95.41
2016-10-30T08:15:26.659Z,95.12
2016-10-30T08:16:27.331Z,95.03
2016-10-30T08:17:27.995Z,94.93
2016-10-30T08:18:28.657Z,94.74
2016-10-30T08:19:29.327Z,94.46
2016-10-30T08:25:45.155Z,93.17
2016-10-30T08:26:45.830Z,92.41
2016-10-30T08:27:46.502Z,91.64
2016-10-30T08:28:47.178Z,90.98
2016-10-30T08:29:47.847Z,90.5
2016-10-30T08:30:48.518Z,90.5
2016-10-30T08:31:49.197Z,90.12
2016-10-30T08:32:49.865Z,90.31
2016-10-30T08:33:50.542Z,90.55
2016-10-30T08:34:51.212Z,90.17
2016-10-30T08:35:51.871Z,90.07
2016-10-30T08:36:52.544Z,89.74
2016-10-30T08:37:53.208Z,89.54
2016-10-30T08:38:53.888Z,89.59
2016-10-30T08:39:54.573Z,89.64
2016-10-30T08:40:55.247Z,89.59
2016-10-30T08:41:55.906Z,89.93
2016-10-30T08:42:56.587Z,89.97
2016-10-30T08:43:57.250Z,89.54
2016-10-30T08:44:57.932Z,89.54
2016-10-30T08:45:58.598Z,89.26
2016-10-30T08:46:59.276Z,89.12
2016-10-30T08:47:59.940Z,89.64
2016-10-30T08:49:00.615Z,89.54
2016-10-30T08:50:01.300Z,89.59
2016-10-30T08:51:01.969Z,89.12
2016-10-30T08:52:02.646Z,88.83
2016-10-30T08:53:03.323Z,88.92
2016-10-30T08:54:03.995Z,89.02
2016-10-30T08:55:04.663Z,88.35
2016-10-30T08:56:05.335Z,88.16
2016-10-30T08:57:06.021Z,88.16
2016-10-30T08:58:06.689Z,87.68
2016-10-30T08:59:07.361Z,87.87
2016-10-30T09:00:08.024Z,87.4
2016-10-30T09:01:08.699Z,87.21
2016-10-30T09:02:09.371Z,86.82
2016-10-30T09:03:10.044Z,87.74
2016-10-30T09:04:10.708Z,88.21
2016-10-30T09:05:11.385Z,87.35
2016-10-30T09:06:12.058Z,87.26
2016-10-30T09:07:12.739Z,87.07
2016-10-30T09:08:13.406Z,87.54
2016-10-30T09:09:14.074Z,87.74
2016-10-30T09:10:14.747Z,87.54
2016-10-30T09:11:15.420Z,87.54
2016-10-30T09:12:16.102Z,87.45
2016-10-30T09:13:16.773Z,86.88
2016-10-30T09:14:17.436Z,86.88
2016-10-30T09:15:18.112Z,87.16
2016-10-30T09:16:18.781Z,86.88
2016-10-30T09:17:20.221Z,87.35
2016-10-30T09:18:21.468Z,87.35
2016-10-30T09:19:23.794Z,87.26
2016-10-30T09:20:24.705Z,87.16
2016-10-30T09:21:25.234Z,87.07
2016-10-30T09:22:25.930Z,87.54
2016-10-30T09:23:26.633Z,86.78
2016-10-30T09:24:27.784Z,86.21
2016-10-30T09:25:28.491Z,86.16
2016-10-30T09:26:29.199Z,86.11
2016-10-30T09:27:29.877Z,86.35
2016-10-30T09:28:30.549Z,86.06
2016-10-30T09:29:31.238Z,85.39
2016-10-30T09:30:31.920Z,85.58
2016-10-30T09:31:32.580Z,85.39
2016-10-30T09:32:33.280Z,85.39
2016-10-30T09:33:33.957Z,85.01
2016-10-30T09:34:34.643Z,85.39
2016-10-30T09:35:35.307Z,85.39
2016-10-30T09:36:35.977Z,85.39
2016-10-30T09:37:36.650Z,84.44
2016-10-30T09:38:37.320Z,84.63
2016-10-30T09:39:37.995Z,84.78
2016-10-30T09:40:38.669Z,85.01
2016-10-30T09:41:39.333Z,84.82
2016-10-30T09:42:40.016Z,84.72
2016-10-30T09:43:40.684Z,84.53
2016-10-30T09:44:41.353Z,84.92
2016-10-30T09:45:42.022Z,84.72
2016-10-30T09:46:42.707Z,83.2
2016-10-30T09:47:43.383Z,82.72
2016-10-30T09:48:44.062Z,83.39
2016-10-30T09:49:44.731Z,82.91
2016-10-30T09:50:45.412Z,82.34
2016-10-30T09:51:46.113Z,82.91
2016-10-30T09:52:46.826Z,82.91
2016-10-30T09:53:47.513Z,83.11
2016-10-30T09:54:48.195Z,83.01
2016-10-30T09:55:48.898Z,81.77
2016-10-30T09:56:49.568Z,81.86
2016-10-30T09:57:50.245Z,81.77
2016-10-30T09:58:50.927Z,81.14
2016-10-30T09:59:51.612Z,80.85
2016-10-30T10:00:52.282Z,80.05
2016-10-30T10:01:52.949Z,79.67
2016-10-30T10:02:53.627Z,79.38
2016-10-30T10:03:54.299Z,79.57
2016-10-30T10:04:55.560Z,80.24
2016-10-30T10:05:56.261Z,80.33
2016-10-30T10:06:56.948Z,80.24
2016-10-30T10:07:57.621Z,79.86
2016-10-30T10:08:58.301Z,80.09
2016-10-30T10:09:58.970Z,79.52
2016-10-30T10:10:59.652Z,79.33
2016-10-30T10:12:00.334Z,78.94
2016-10-30T10:13:01.018Z,78.56
2016-10-30T10:14:01.697Z,78.66
2016-10-30T10:15:02.382Z,78.18
2016-10-30T10:16:03.061Z,77.99
2016-10-30T10:17:03.728Z,77.8
2016-10-30T10:18:04.408Z,77.99
2016-10-30T10:19:05.074Z,77.89
2016-10-30T10:20:05.746Z,78.18
2016-10-30T10:21:06.416Z,77.8
2016-10-30T10:22:07.090Z,77.7
2016-10-30T10:23:07.809Z,77.61
2016-10-30T10:24:08.478Z,77.99
2016-10-30T10:25:09.170Z,77.89
2016-10-30T10:26:09.829Z,78.47
2016-10-30T10:27:10.520Z,78.47
2016-10-30T10:28:11.201Z,77.7
2016-10-30T10:29:11.874Z,78.18
2016-10-30T10:30:12.625Z,77.61
2016-10-30T10:31:13.324Z,78.09
2016-10-30T10:32:13.971Z,78.18
2016-10-30T10:33:16.027Z,78.09
2016-10-30T10:34:16.692Z,77.99
2016-10-30T10:35:17.359Z,78.09
2016-10-30T10:36:18.026Z,77.61
2016-10-30T10:37:18.693Z,77.13
2016-10-30T10:38:19.369Z,77.13
2016-10-30T10:39:20.042Z,76.65
2016-10-30T10:40:20.725Z,76.18
2016-10-30T10:41:21.390Z,76.75
2016-10-30T10:42:22.061Z,76.65
2016-10-30T10:43:22.738Z,76.75
2016-10-30T10:44:23.403Z,76.65
2016-10-30T10:45:24.074Z,76.65
2016-10-30T10:46:24.747Z,76.65
2016-10-30T10:47:25.416Z,76.81
2016-10-30T10:48:26.090Z,77.03
2016-10-30T10:49:26.875Z,76.65
2016-10-30T10:50:27.548Z,76.08
2016-10-30T10:51:28.242Z,76.65
2016-10-30T10:52:28.972Z,76.27
2016-10-30T10:53:31.029Z,76.46
2016-10-30T10:54:31.512Z,76.37
2016-10-30T10:55:32.177Z,76.56
2016-10-30T10:56:32.849Z,76.84
2016-10-30T10:57:33.530Z,76.46
2016-10-30T10:58:34.316Z,76.08
2016-10-30T10:59:35.001Z,76.75
2016-10-30T11:00:35.668Z,76.42
2016-10-30T11:01:36.336Z,76.46
2016-10-30T11:02:37.027Z,76.56
2016-10-30T11:03:37.706Z,76.27
2016-10-30T11:04:38.374Z,76.27
2016-10-30T11:05:39.036Z,76.18
2016-10-30T11:06:39.992Z,76.37
2016-10-30T11:07:40.783Z,76.84
2016-10-30T11:08:42.815Z,76.94
2016-10-30T11:09:43.590Z,76.94
2016-10-30T11:10:44.983Z,76.65
2016-10-30T11:11:45.401Z,76.27
2016-10-30T11:12:46.083Z,76.65
2016-10-30T11:13:46.754Z,76.75
2016-10-30T11:14:47.420Z,76.27
2016-10-30T11:15:48.144Z,76.37
2016-10-30T11:16:48.821Z,76.27
2016-10-30T11:17:49.499Z,76.37
2016-10-30T11:18:50.165Z,76.75
2016-10-30T11:19:50.834Z,76.56
2016-10-30T11:20:51.504Z,76.56
2016-10-30T11:21:52.185Z,76.56
2016-10-30T11:22:52.852Z,76.18
2016-10-30T11:23:53.522Z,76.65
2016-10-30T11:24:54.196Z,76.65
2016-10-30T11:25:54.875Z,76.75
2016-10-30T11:26:55.544Z,76.84
2016-10-30T11:27:56.226Z,76.27
2016-10-30T11:28:56.931Z,76.18
2016-10-30T11:29:57.611Z,76.37
2016-10-30T11:30:58.283Z,76.27
2016-10-30T11:31:58.953Z,76.75
2016-10-30T11:32:59.628Z,76.65
2016-10-30T11:34:00.320Z,76.84
2016-10-30T11:35:01.154Z,77.32
2016-10-30T11:36:01.684Z,77.32
2016-10-30T11:37:02.382Z,77.23
2016-10-30T11:38:03.139Z,76.46
2016-10-30T11:39:03.757Z,76.46
2016-10-30T11:40:04.448Z,76.65
2016-10-30T11:41:05.119Z,76.46
2016-10-30T11:42:05.790Z,75.51
2016-10-30T11:43:06.460Z,75.7
2016-10-30T11:44:07.127Z,75.98
2016-10-30T11:45:07.804Z,75.22
2016-10-30T11:46:08.570Z,75.98
2016-10-30T11:47:09.238Z,75.42
2016-10-30T11:48:09.928Z,75.03
2016-10-30T11:49:10.597Z,75.22
2016-10-30T11:50:11.274Z,75.51
2016-10-30T11:51:11.942Z,75.42
2016-10-30T11:52:12.620Z,74.84
2016-10-30T11:53:13.287Z,75.13
2016-10-30T11:54:13.956Z,75.42
2016-10-30T11:55:14.636Z,75.22
2016-10-30T11:56:15.303Z,75.42
2016-10-30T11:57:15.979Z,75.42
2016-10-30T11:58:16.653Z,75.42
2016-10-30T11:59:17.315Z,75.13
2016-10-30T12:00:17.991Z,75.89
2016-10-30T12:01:18.663Z,75.98
2016-10-30T12:02:19.334Z,75.51
2016-10-30T12:03:20.008Z,75.89
2016-10-30T12:04:20.778Z,75.51
2016-10-30T12:05:21.481Z,76.27
2016-10-30T12:06:23.544Z,75.98
2016-10-30T12:07:24.542Z,75.7
2016-10-30T12:08:25.237Z,75.98
2016-10-30T12:09:25.911Z,75.98
2016-10-30T12:10:26.583Z,75.51
2016-10-30T12:11:27.282Z,75.89
2016-10-30T12:12:27.955Z,75.89
2016-10-30T12:13:28.630Z,75.51
2016-10-30T12:14:29.291Z,75.6
2016-10-30T12:15:29.971Z,76.08
2016-10-30T12:16:30.691Z,75.42
2016-10-30T12:17:31.329Z,75.98
2016-10-30T12:18:32.006Z,75.79
2016-10-30T12:19:32.702Z,75.79
2016-10-30T12:20:33.533Z,75.42
2016-10-30T12:21:34.199Z,76.18
2016-10-30T12:22:34.878Z,76.37
2016-10-30T12:23:35.546Z,75.7
2016-10-30T12:24:36.509Z,75.89
2016-10-30T12:25:37.167Z,76.18
2016-10-30T12:26:37.833Z,76.27
2016-10-30T12:27:38.500Z,76.75
2016-10-30T12:28:39.184Z,76.56
2016-10-30T12:29:39.856Z,76.27
2016-10-30T12:30:40.532Z,76.46
2016-10-30T12:31:41.205Z,76.75
2016-10-30T12:32:41.871Z,76.5
2016-10-30T12:33:42.545Z,76.69
2016-10-30T12:34:43.216Z,76.4
2016-10-30T12:35:43.888Z,76.18
2016-10-30T12:36:44.587Z,76.65
2016-10-30T12:37:45.267Z,76.4
2016-10-30T12:38:45.929Z,76.03
2016-10-30T12:39:46.611Z,75.89
2016-10-30T12:40:47.276Z,75.83
2016-10-30T12:41:47.958Z,76.03
2016-10-30T12:42:48.638Z,75.83
2016-10-30T12:43:49.303Z,76.18
2016-10-30T12:44:49.971Z,76.03
2016-10-30T12:45:50.642Z,76.27
2016-10-30T12:46:51.312Z,76.6
2016-10-30T12:47:51.984Z,76.4
2016-10-30T12:48:52.654Z,76.03
2016-10-30T12:49:53.330Z,76.12
2016-10-30T12:50:53.997Z,76.37
2016-10-30T12:51:54.669Z,76.08
2016-10-30T12:52:55.331Z,75.74
2016-10-30T12:53:56.013Z,76.27
2016-10-30T12:54:56.690Z,76.18
2016-10-30T12:55:57.358Z,76.18
2016-10-30T12:56:58.036Z,76.08
2016-10-30T12:57:58.707Z,76.5
2016-10-30T12:58:59.378Z,76.65
2016-10-30T13:00:00.051Z,76.75
2016-10-30T13:01:00.723Z,75.6
2016-10-30T13:02:01.396Z,75.26
2016-10-30T13:03:02.073Z,75.16
2016-10-30T13:04:02.743Z,75.89
2016-10-30T13:05:03.414Z,76.18
2016-10-30T13:06:04.087Z,76.6
2016-10-30T13:07:04.758Z,76.69
2016-10-30T13:08:05.432Z,76.79
2016-10-30T13:09:06.102Z,76.21
2016-10-30T13:10:06.776Z,76.4